sensor_id;sensor_type;location;lat;lon;timestamp;P1;durP1;ratioP1;P2;durP2;ratioP2
70733;SDS011;58320;48.804;9.252;2022-11-15T00:00:53;9.52;;;5.13;;
70733;SDS011;58320;48.804;9.252;2022-11-15T00:03:21;9.57;;;5.47;;
70733;SDS011;58320;48.804;9.252;2022-11-15T00:05:49;9.52;;;5.38;;
70733;SDS011;58320;48.804;9.252;2022-11-15T00:08:15;9.98;;;5.22;;
70733;SDS011;58320;48.804;9.252;2022-11-15T00:10:42;9.52;;;5.72;;
70733;SDS011;58320;48.804;9.252;2022-11-15T00:13:09;10.65;;;6.28;;
70733;SDS011;58320;48.804;9.252;2022-11-15T00:15:37;10.50;;;5.80;;
70733;SDS011;58320;48.804;9.252;2022-11-15T00:18:05;9.88;;;5.47;;
70733;SDS011;58320;48.804;9.252;2022-11-15T00:20:37;10.07;;;5.28;;
70733;SDS011;58320;48.804;9.252;2022-11-15T00:23:03;8.00;;;4.50;;
70733;SDS011;58320;48.804;9.252;2022-11-15T00:25:30;8.13;;;4.53;;
70733;SDS011;58320;48.804;9.252;2022-11-15T00:27:56;8.17;;;4.40;;
70733;SDS011;58320;48.804;9.252;2022-11-15T00:30:23;9.27;;;4.90;;
70733;SDS011;58320;48.804;9.252;2022-11-15T00:32:50;8.38;;;4.82;;
70733;SDS011;58320;48.804;9.252;2022-11-15T00:35:16;7.45;;;4.35;;
70733;SDS011;58320;48.804;9.252;2022-11-15T00:37:42;9.10;;;4.45;;
70733;SDS011;58320;48.804;9.252;2022-11-15T00:40:08;7.70;;;4.37;;
70733;SDS011;58320;48.804;9.252;2022-11-15T00:42:35;8.52;;;4.88;;
70733;SDS011;58320;48.804;9.252;2022-11-15T00:45:01;7.95;;;4.60;;
70733;SDS011;58320;48.804;9.252;2022-11-15T00:47:27;9.23;;;4.70;;
70733;SDS011;58320;48.804;9.252;2022-11-15T00:49:53;9.65;;;4.85;;
70733;SDS011;58320;48.804;9.252;2022-11-15T00:52:19;7.80;;;4.28;;
70733;SDS011;58320;48.804;9.252;2022-11-15T00:54:44;9.73;;;3.73;;
70733;SDS011;58320;48.804;9.252;2022-11-15T00:57:10;7.22;;;4.40;;
70733;SDS011;58320;48.804;9.252;2022-11-15T00:59:36;6.47;;;3.27;;
70733;SDS011;58320;48.804;9.252;2022-11-15T01:02:02;8.07;;;2.95;;
70733;SDS011;58320;48.804;9.252;2022-11-15T01:04:28;7.13;;;3.10;;
70733;SDS011;58320;48.804;9.252;2022-11-15T01:06:53;6.90;;;3.37;;
70733;SDS011;58320;48.804;9.252;2022-11-15T01:09:19;7.47;;;3.53;;
70733;SDS011;58320;48.804;9.252;2022-11-15T01:11:45;6.47;;;3.80;;
70733;SDS011;58320;48.804;9.252;2022-11-15T01:14:11;6.47;;;3.93;;
70733;SDS011;58320;48.804;9.252;2022-11-15T01:16:37;8.82;;;4.68;;
70733;SDS011;58320;48.804;9.252;2022-11-15T01:19:03;8.38;;;4.63;;
70733;SDS011;58320;48.804;9.252;2022-11-15T01:21:29;8.03;;;4.37;;
70733;SDS011;58320;48.804;9.252;2022-11-15T01:23:55;8.73;;;4.82;;
70733;SDS011;58320;48.804;9.252;2022-11-15T01:26:22;10.27;;;4.95;;
70733;SDS011;58320;48.804;9.252;2022-11-15T01:28:49;9.20;;;4.25;;
70733;SDS011;58320;48.804;9.252;2022-11-15T01:31:17;9.97;;;4.37;;
70733;SDS011;58320;48.804;9.252;2022-11-15T01:33:45;8.25;;;4.47;;
70733;SDS011;58320;48.804;9.252;2022-11-15T01:36:15;7.25;;;4.50;;
70733;SDS011;58320;48.804;9.252;2022-11-15T01:38:44;7.90;;;3.75;;
70733;SDS011;58320;48.804;9.252;2022-11-15T01:41:20;8.85;;;4.30;;
70733;SDS011;58320;48.804;9.252;2022-11-15T01:43:51;10.53;;;4.47;;
70733;SDS011;58320;48.804;9.252;2022-11-15T01:49:02;9.55;;;5.00;;
70733;SDS011;58320;48.804;9.252;2022-11-15T01:51:45;9.60;;;4.97;;
70733;SDS011;58320;48.804;9.252;2022-11-15T01:54:13;11.30;;;5.63;;
70733;SDS011;58320;48.804;9.252;2022-11-15T01:57:04;9.80;;;5.73;;
70733;SDS011;58320;48.804;9.252;2022-11-15T01:59:32;10.85;;;5.45;;
70733;SDS011;58320;48.804;9.252;2022-11-15T02:01:59;9.50;;;5.20;;
70733;SDS011;58320;48.804;9.252;2022-11-15T02:04:29;8.02;;;5.00;;
70733;SDS011;58320;48.804;9.252;2022-11-15T02:07:11;8.48;;;4.95;;
70733;SDS011;58320;48.804;9.252;2022-11-15T02:09:42;9.43;;;5.27;;
70733;SDS011;58320;48.804;9.252;2022-11-15T02:12:09;11.48;;;5.20;;
70733;SDS011;58320;48.804;9.252;2022-11-15T02:14:39;12.75;;;6.00;;
70733;SDS011;58320;48.804;9.252;2022-11-15T02:32:34;8.38;;;4.53;;
70733;SDS011;58320;48.804;9.252;2022-11-15T02:35:28;8.98;;;4.20;;
70733;SDS011;58320;48.804;9.252;2022-11-15T02:38:08;7.73;;;3.90;;
70733;SDS011;58320;48.804;9.252;2022-11-15T02:41:16;8.45;;;4.70;;
70733;SDS011;58320;48.804;9.252;2022-11-15T02:43:54;8.27;;;4.50;;
70733;SDS011;58320;48.804;9.252;2022-11-15T02:49:23;8.73;;;4.90;;
70733;SDS011;58320;48.804;9.252;2022-11-15T02:51:53;8.07;;;4.80;;
70733;SDS011;58320;48.804;9.252;2022-11-15T02:54:31;9.27;;;5.05;;
70733;SDS011;58320;48.804;9.252;2022-11-15T02:57:00;8.95;;;5.18;;
70733;SDS011;58320;48.804;9.252;2022-11-15T03:13:25;8.88;;;4.50;;
70733;SDS011;58320;48.804;9.252;2022-11-15T03:18:34;10.93;;;5.53;;
70733;SDS011;58320;48.804;9.252;2022-11-15T03:21:12;9.20;;;5.28;;
70733;SDS011;58320;48.804;9.252;2022-11-15T03:23:41;9.45;;;5.90;;
70733;SDS011;58320;48.804;9.252;2022-11-15T03:26:09;8.27;;;4.63;;
70733;SDS011;58320;48.804;9.252;2022-11-15T03:31:17;8.07;;;4.30;;
70733;SDS011;58320;48.804;9.252;2022-11-15T03:34:06;7.70;;;4.32;;
70733;SDS011;58320;48.804;9.252;2022-11-15T03:36:36;9.68;;;5.35;;
70733;SDS011;58320;48.804;9.252;2022-11-15T03:39:05;13.00;;;5.38;;
70733;SDS011;58320;48.804;9.252;2022-11-15T03:41:37;10.73;;;6.13;;
70733;SDS011;58320;48.804;9.252;2022-11-15T03:47:32;11.95;;;7.03;;
70733;SDS011;58320;48.804;9.252;2022-11-15T03:50:12;16.52;;;7.78;;
70733;SDS011;58320;48.804;9.252;2022-11-15T03:52:41;10.05;;;6.40;;
70733;SDS011;58320;48.804;9.252;2022-11-15T03:55:12;9.30;;;5.78;;
70733;SDS011;58320;48.804;9.252;2022-11-15T03:57:42;10.00;;;5.83;;
70733;SDS011;58320;48.804;9.252;2022-11-15T04:00:08;10.82;;;5.20;;
70733;SDS011;58320;48.804;9.252;2022-11-15T04:02:34;8.85;;;4.65;;
70733;SDS011;58320;48.804;9.252;2022-11-15T04:05:00;10.30;;;5.22;;
70733;SDS011;58320;48.804;9.252;2022-11-15T04:07:26;8.07;;;4.93;;
70733;SDS011;58320;48.804;9.252;2022-11-15T04:09:52;8.23;;;4.70;;
70733;SDS011;58320;48.804;9.252;2022-11-15T04:12:34;8.77;;;4.88;;
70733;SDS011;58320;48.804;9.252;2022-11-15T04:15:07;10.48;;;5.63;;
70733;SDS011;58320;48.804;9.252;2022-11-15T04:17:52;10.47;;;6.10;;
70733;SDS011;58320;48.804;9.252;2022-11-15T04:20:29;12.38;;;6.15;;
70733;SDS011;58320;48.804;9.252;2022-11-15T04:23:15;12.52;;;7.18;;
70733;SDS011;58320;48.804;9.252;2022-11-15T04:26:17;15.93;;;8.70;;
70733;SDS011;58320;48.804;9.252;2022-11-15T04:28:46;12.60;;;7.20;;
70733;SDS011;58320;48.804;9.252;2022-11-15T04:31:30;12.43;;;6.90;;
70733;SDS011;58320;48.804;9.252;2022-11-15T04:33:56;15.57;;;7.55;;
70733;SDS011;58320;48.804;9.252;2022-11-15T04:36:22;14.52;;;7.82;;
70733;SDS011;58320;48.804;9.252;2022-11-15T04:39:07;15.48;;;8.30;;
70733;SDS011;58320;48.804;9.252;2022-11-15T04:41:33;13.97;;;7.37;;
70733;SDS011;58320;48.804;9.252;2022-11-15T04:43:59;15.85;;;9.10;;
70733;SDS011;58320;48.804;9.252;2022-11-15T04:46:25;13.15;;;8.05;;
70733;SDS011;58320;48.804;9.252;2022-11-15T04:48:51;15.47;;;8.33;;
70733;SDS011;58320;48.804;9.252;2022-11-15T04:51:18;15.20;;;7.82;;
70733;SDS011;58320;48.804;9.252;2022-11-15T04:53:44;12.18;;;7.45;;
70733;SDS011;58320;48.804;9.252;2022-11-15T04:56:10;12.13;;;6.70;;
70733;SDS011;58320;48.804;9.252;2022-11-15T04:58:37;10.55;;;6.60;;
70733;SDS011;58320;48.804;9.252;2022-11-15T05:01:06;11.83;;;6.20;;
70733;SDS011;58320;48.804;9.252;2022-11-15T05:03:37;10.70;;;5.95;;
70733;SDS011;58320;48.804;9.252;2022-11-15T05:06:21;12.15;;;5.65;;
70733;SDS011;58320;48.804;9.252;2022-11-15T05:08:47;12.55;;;6.53;;
70733;SDS011;58320;48.804;9.252;2022-11-15T05:11:13;12.50;;;7.70;;
70733;SDS011;58320;48.804;9.252;2022-11-15T05:13:39;11.57;;;7.30;;
70733;SDS011;58320;48.804;9.252;2022-11-15T05:16:04;12.90;;;7.23;;
70733;SDS011;58320;48.804;9.252;2022-11-15T05:18:31;12.20;;;7.17;;
70733;SDS011;58320;48.804;9.252;2022-11-15T05:21:02;11.07;;;6.85;;
70733;SDS011;58320;48.804;9.252;2022-11-15T05:23:39;13.02;;;7.20;;
70733;SDS011;58320;48.804;9.252;2022-11-15T05:26:06;15.65;;;7.40;;
70733;SDS011;58320;48.804;9.252;2022-11-15T05:28:34;10.33;;;6.37;;
70733;SDS011;58320;48.804;9.252;2022-11-15T05:31:05;12.73;;;7.95;;
70733;SDS011;58320;48.804;9.252;2022-11-15T05:33:35;13.30;;;7.75;;
70733;SDS011;58320;48.804;9.252;2022-11-15T05:36:04;14.57;;;8.82;;
70733;SDS011;58320;48.804;9.252;2022-11-15T05:39:03;13.15;;;8.73;;
70733;SDS011;58320;48.804;9.252;2022-11-15T05:41:53;13.47;;;8.53;;
70733;SDS011;58320;48.804;9.252;2022-11-15T05:44:30;15.25;;;8.27;;
70733;SDS011;58320;48.804;9.252;2022-11-15T05:46:56;12.77;;;8.27;;
70733;SDS011;58320;48.804;9.252;2022-11-15T05:49:24;13.43;;;8.05;;
70733;SDS011;58320;48.804;9.252;2022-11-15T05:51:55;11.95;;;7.55;;
70733;SDS011;58320;48.804;9.252;2022-11-15T05:54:22;14.47;;;7.47;;
70733;SDS011;58320;48.804;9.252;2022-11-15T05:56:50;12.57;;;7.55;;
70733;SDS011;58320;48.804;9.252;2022-11-15T05:59:16;11.35;;;6.47;;
70733;SDS011;58320;48.804;9.252;2022-11-15T06:01:42;11.50;;;6.80;;
70733;SDS011;58320;48.804;9.252;2022-11-15T06:04:08;12.20;;;7.03;;
70733;SDS011;58320;48.804;9.252;2022-11-15T06:06:34;14.07;;;7.13;;
70733;SDS011;58320;48.804;9.252;2022-11-15T06:09:00;13.35;;;7.65;;
70733;SDS011;58320;48.804;9.252;2022-11-15T06:11:26;11.07;;;7.00;;
70733;SDS011;58320;48.804;9.252;2022-11-15T06:13:52;13.98;;;8.45;;
70733;SDS011;58320;48.804;9.252;2022-11-15T06:16:17;13.02;;;8.10;;
70733;SDS011;58320;48.804;9.252;2022-11-15T06:18:43;12.73;;;7.10;;
70733;SDS011;58320;48.804;9.252;2022-11-15T06:21:09;13.52;;;8.57;;
70733;SDS011;58320;48.804;9.252;2022-11-15T06:23:35;15.53;;;8.53;;
70733;SDS011;58320;48.804;9.252;2022-11-15T06:26:01;18.33;;;8.33;;
70733;SDS011;58320;48.804;9.252;2022-11-15T06:28:28;11.70;;;6.82;;
70733;SDS011;58320;48.804;9.252;2022-11-15T06:30:56;11.80;;;7.10;;
70733;SDS011;58320;48.804;9.252;2022-11-15T06:33:27;10.35;;;6.18;;
70733;SDS011;58320;48.804;9.252;2022-11-15T06:35:53;12.67;;;6.10;;
70733;SDS011;58320;48.804;9.252;2022-11-15T06:38:19;9.85;;;5.70;;
70733;SDS011;58320;48.804;9.252;2022-11-15T06:40:44;11.77;;;5.60;;
70733;SDS011;58320;48.804;9.252;2022-11-15T06:43:10;10.90;;;5.65;;
70733;SDS011;58320;48.804;9.252;2022-11-15T06:45:36;8.90;;;5.40;;
70733;SDS011;58320;48.804;9.252;2022-11-15T06:48:02;9.17;;;5.53;;
70733;SDS011;58320;48.804;9.252;2022-11-15T06:50:28;10.35;;;5.65;;
70733;SDS011;58320;48.804;9.252;2022-11-15T06:52:53;9.80;;;5.70;;
70733;SDS011;58320;48.804;9.252;2022-11-15T06:55:19;8.37;;;5.00;;
70733;SDS011;58320;48.804;9.252;2022-11-15T06:57:52;10.00;;;6.13;;
70733;SDS011;58320;48.804;9.252;2022-11-15T07:00:18;10.35;;;6.53;;
70733;SDS011;58320;48.804;9.252;2022-11-15T07:02:46;11.60;;;6.07;;
70733;SDS011;58320;48.804;9.252;2022-11-15T07:05:13;8.73;;;5.60;;
70733;SDS011;58320;48.804;9.252;2022-11-15T07:07:39;9.38;;;5.50;;
70733;SDS011;58320;48.804;9.252;2022-11-15T07:10:05;9.85;;;5.35;;
70733;SDS011;58320;48.804;9.252;2022-11-15T07:12:32;8.98;;;5.25;;
70733;SDS011;58320;48.804;9.252;2022-11-15T07:14:59;8.55;;;5.50;;
70733;SDS011;58320;48.804;9.252;2022-11-15T07:17:28;11.33;;;5.43;;
70733;SDS011;58320;48.804;9.252;2022-11-15T07:19:54;8.98;;;4.72;;
70733;SDS011;58320;48.804;9.252;2022-11-15T07:22:22;8.05;;;5.05;;
70733;SDS011;58320;48.804;9.252;2022-11-15T07:24:49;9.80;;;5.38;;
70733;SDS011;58320;48.804;9.252;2022-11-15T07:27:15;10.20;;;5.10;;
70733;SDS011;58320;48.804;9.252;2022-11-15T07:29:44;9.03;;;4.90;;
70733;SDS011;58320;48.804;9.252;2022-11-15T07:32:10;8.30;;;5.10;;
70733;SDS011;58320;48.804;9.252;2022-11-15T07:34:37;8.43;;;5.00;;
70733;SDS011;58320;48.804;9.252;2022-11-15T07:37:03;9.30;;;4.35;;
70733;SDS011;58320;48.804;9.252;2022-11-15T07:39:28;8.63;;;5.17;;
70733;SDS011;58320;48.804;9.252;2022-11-15T07:41:54;8.13;;;4.25;;
70733;SDS011;58320;48.804;9.252;2022-11-15T07:44:40;8.27;;;4.30;;
70733;SDS011;58320;48.804;9.252;2022-11-15T07:47:06;9.57;;;5.10;;
70733;SDS011;58320;48.804;9.252;2022-11-15T07:49:31;8.50;;;4.93;;
70733;SDS011;58320;48.804;9.252;2022-11-15T07:51:57;8.75;;;4.63;;
70733;SDS011;58320;48.804;9.252;2022-11-15T07:54:23;7.73;;;4.00;;
70733;SDS011;58320;48.804;9.252;2022-11-15T07:56:49;6.80;;;4.40;;
70733;SDS011;58320;48.804;9.252;2022-11-15T07:59:15;8.32;;;4.70;;
70733;SDS011;58320;48.804;9.252;2022-11-15T08:01:40;7.97;;;4.80;;
70733;SDS011;58320;48.804;9.252;2022-11-15T08:04:06;8.57;;;4.50;;
70733;SDS011;58320;48.804;9.252;2022-11-15T08:06:32;7.53;;;4.30;;
70733;SDS011;58320;48.804;9.252;2022-11-15T08:08:58;8.23;;;4.25;;
70733;SDS011;58320;48.804;9.252;2022-11-15T08:11:23;7.68;;;4.10;;
70733;SDS011;58320;48.804;9.252;2022-11-15T08:13:49;7.93;;;4.10;;
70733;SDS011;58320;48.804;9.252;2022-11-15T08:16:15;6.78;;;4.13;;
70733;SDS011;58320;48.804;9.252;2022-11-15T08:18:41;6.00;;;4.03;;
70733;SDS011;58320;48.804;9.252;2022-11-15T08:21:08;7.40;;;4.40;;
70733;SDS011;58320;48.804;9.252;2022-11-15T08:23:34;6.07;;;3.90;;
70733;SDS011;58320;48.804;9.252;2022-11-15T08:26:01;7.55;;;4.65;;
70733;SDS011;58320;48.804;9.252;2022-11-15T08:28:28;7.53;;;4.47;;
70733;SDS011;58320;48.804;9.252;2022-11-15T08:30:55;8.90;;;4.65;;
70733;SDS011;58320;48.804;9.252;2022-11-15T08:33:21;9.45;;;4.97;;
70733;SDS011;58320;48.804;9.252;2022-11-15T08:35:46;9.53;;;5.53;;
70733;SDS011;58320;48.804;9.252;2022-11-15T08:38:13;8.65;;;4.57;;
70733;SDS011;58320;48.804;9.252;2022-11-15T08:40:39;10.07;;;4.70;;
70733;SDS011;58320;48.804;9.252;2022-11-15T08:43:05;9.82;;;5.20;;
70733;SDS011;58320;48.804;9.252;2022-11-15T08:45:33;7.70;;;4.50;;
70733;SDS011;58320;48.804;9.252;2022-11-15T08:48:00;8.27;;;4.83;;
70733;SDS011;58320;48.804;9.252;2022-11-15T08:50:28;7.95;;;4.60;;
70733;SDS011;58320;48.804;9.252;2022-11-15T08:52:53;8.45;;;4.70;;
70733;SDS011;58320;48.804;9.252;2022-11-15T08:55:19;8.20;;;4.47;;
70733;SDS011;58320;48.804;9.252;2022-11-15T08:57:45;10.23;;;4.60;;
70733;SDS011;58320;48.804;9.252;2022-11-15T09:00:11;7.80;;;4.38;;
70733;SDS011;58320;48.804;9.252;2022-11-15T09:02:38;7.50;;;3.80;;
70733;SDS011;58320;48.804;9.252;2022-11-15T09:05:05;7.85;;;3.95;;
70733;SDS011;58320;48.804;9.252;2022-11-15T09:07:31;6.82;;;4.07;;
70733;SDS011;58320;48.804;9.252;2022-11-15T09:09:57;7.40;;;3.55;;
70733;SDS011;58320;48.804;9.252;2022-11-15T09:12:23;6.50;;;3.40;;
70733;SDS011;58320;48.804;9.252;2022-11-15T09:14:50;7.05;;;3.80;;
70733;SDS011;58320;48.804;9.252;2022-11-15T09:17:16;8.57;;;4.40;;
70733;SDS011;58320;48.804;9.252;2022-11-15T09:19:42;6.70;;;4.07;;
70733;SDS011;58320;48.804;9.252;2022-11-15T09:22:08;6.32;;;3.80;;
70733;SDS011;58320;48.804;9.252;2022-11-15T09:24:34;8.52;;;4.25;;
70733;SDS011;58320;48.804;9.252;2022-11-15T09:27:00;8.63;;;4.70;;
70733;SDS011;58320;48.804;9.252;2022-11-15T09:29:26;7.77;;;4.97;;
70733;SDS011;58320;48.804;9.252;2022-11-15T09:31:52;11.95;;;5.40;;
70733;SDS011;58320;48.804;9.252;2022-11-15T09:34:18;8.98;;;5.10;;
70733;SDS011;58320;48.804;9.252;2022-11-15T09:36:44;9.23;;;5.17;;
70733;SDS011;58320;48.804;9.252;2022-11-15T09:39:10;9.73;;;4.20;;
70733;SDS011;58320;48.804;9.252;2022-11-15T09:47:29;6.68;;;4.18;;
70733;SDS011;58320;48.804;9.252;2022-11-15T09:49:52;6.00;;;3.72;;
70733;SDS011;58320;48.804;9.252;2022-11-15T09:52:21;7.53;;;3.15;;
70733;SDS011;58320;48.804;9.252;2022-11-15T09:54:48;6.57;;;3.43;;
70733;SDS011;58320;48.804;9.252;2022-11-15T09:57:30;8.03;;;3.67;;
70733;SDS011;58320;48.804;9.252;2022-11-15T10:03:02;9.00;;;4.10;;
70733;SDS011;58320;48.804;9.252;2022-11-15T10:05:44;7.43;;;3.28;;
70733;SDS011;58320;48.804;9.252;2022-11-15T10:10:52;8.10;;;3.80;;
70733;SDS011;58320;48.804;9.252;2022-11-15T10:13:32;6.88;;;4.35;;
70733;SDS011;58320;48.804;9.252;2022-11-15T10:16:24;7.65;;;4.20;;
70733;SDS011;58320;48.804;9.252;2022-11-15T10:22:29;7.40;;;3.90;;
70733;SDS011;58320;48.804;9.252;2022-11-15T10:27:37;6.40;;;3.45;;
70733;SDS011;58320;48.804;9.252;2022-11-15T10:30:10;7.20;;;3.42;;
70733;SDS011;58320;48.804;9.252;2022-11-15T10:32:44;5.78;;;3.30;;
70733;SDS011;58320;48.804;9.252;2022-11-15T10:35:23;11.05;;;2.85;;
70733;SDS011;58320;48.804;9.252;2022-11-15T10:38:04;5.63;;;3.10;;
70733;SDS011;58320;48.804;9.252;2022-11-15T10:40:36;4.50;;;2.83;;
70733;SDS011;58320;48.804;9.252;2022-11-15T10:45:44;5.57;;;3.00;;
70733;SDS011;58320;48.804;9.252;2022-11-15T10:50:37;5.60;;;2.77;;
70733;SDS011;58320;48.804;9.252;2022-11-15T10:53:12;6.55;;;2.40;;
70733;SDS011;58320;48.804;9.252;2022-11-15T10:55:53;4.22;;;2.35;;
70733;SDS011;58320;48.804;9.252;2022-11-15T10:58:56;5.20;;;2.50;;
70733;SDS011;58320;48.804;9.252;2022-11-15T11:01:19;4.90;;;2.78;;
70733;SDS011;58320;48.804;9.252;2022-11-15T11:09:34;6.25;;;2.60;;
70733;SDS011;58320;48.804;9.252;2022-11-15T11:12:04;6.13;;;2.60;;
70733;SDS011;58320;48.804;9.252;2022-11-15T11:14:35;5.25;;;2.70;;
70733;SDS011;58320;48.804;9.252;2022-11-15T11:22:41;5.68;;;2.80;;
70733;SDS011;58320;48.804;9.252;2022-11-15T11:25:35;4.90;;;2.63;;
70733;SDS011;58320;48.804;9.252;2022-11-15T11:31:42;6.72;;;3.08;;
70733;SDS011;58320;48.804;9.252;2022-11-15T11:45:22;5.35;;;2.60;;
70733;SDS011;58320;48.804;9.252;2022-11-15T11:50:38;6.13;;;3.00;;
70733;SDS011;58320;48.804;9.252;2022-11-15T11:55:53;5.55;;;2.80;;
70733;SDS011;58320;48.804;9.252;2022-11-15T11:58:29;5.32;;;3.20;;
70733;SDS011;58320;48.804;9.252;2022-11-15T12:04:05;5.90;;;2.55;;
70733;SDS011;58320;48.804;9.252;2022-11-15T12:17:39;4.32;;;2.40;;
70733;SDS011;58320;48.804;9.252;2022-11-15T12:20:14;7.63;;;3.17;;
70733;SDS011;58320;48.804;9.252;2022-11-15T12:22:43;6.03;;;2.90;;
70733;SDS011;58320;48.804;9.252;2022-11-15T12:33:43;4.43;;;2.50;;
70733;SDS011;58320;48.804;9.252;2022-11-15T12:39:05;6.72;;;2.88;;
70733;SDS011;58320;48.804;9.252;2022-11-15T12:41:44;6.13;;;2.60;;
70733;SDS011;58320;48.804;9.252;2022-11-15T13:02:41;4.88;;;2.67;;
70733;SDS011;58320;48.804;9.252;2022-11-15T13:20:48;4.90;;;2.30;;
70733;SDS011;58320;48.804;9.252;2022-11-15T13:23:15;5.50;;;2.30;;
70733;SDS011;58320;48.804;9.252;2022-11-15T13:28:41;5.60;;;2.70;;
70733;SDS011;58320;48.804;9.252;2022-11-15T13:31:19;4.43;;;2.38;;
70733;SDS011;58320;48.804;9.252;2022-11-15T13:33:51;6.68;;;2.78;;
70733;SDS011;58320;48.804;9.252;2022-11-15T13:36:23;6.97;;;3.20;;
70733;SDS011;58320;48.804;9.252;2022-11-15T13:38:57;6.40;;;2.50;;
70733;SDS011;58320;48.804;9.252;2022-11-15T13:41:37;7.55;;;2.55;;
70733;SDS011;58320;48.804;9.252;2022-11-15T13:44:20;6.38;;;2.38;;
70733;SDS011;58320;48.804;9.252;2022-11-15T13:47:00;7.32;;;3.20;;
70733;SDS011;58320;48.804;9.252;2022-11-15T13:49:31;5.32;;;2.80;;
70733;SDS011;58320;48.804;9.252;2022-11-15T13:51:59;7.73;;;3.50;;
70733;SDS011;58320;48.804;9.252;2022-11-15T13:54:30;6.97;;;3.30;;
70733;SDS011;58320;48.804;9.252;2022-11-15T13:57:12;7.30;;;3.22;;
70733;SDS011;58320;48.804;9.252;2022-11-15T14:00:42;7.00;;;3.10;;
70733;SDS011;58320;48.804;9.252;2022-11-15T14:02:55;12.52;;;5.43;;
70733;SDS011;58320;48.804;9.252;2022-11-15T14:05:23;5.33;;;2.60;;
70733;SDS011;58320;48.804;9.252;2022-11-15T14:07:57;8.80;;;2.60;;
70733;SDS011;58320;48.804;9.252;2022-11-15T14:13:03;6.63;;;2.47;;
70733;SDS011;58320;48.804;9.252;2022-11-15T14:15:35;7.53;;;2.78;;
70733;SDS011;58320;48.804;9.252;2022-11-15T14:18:03;5.47;;;2.67;;
70733;SDS011;58320;48.804;9.252;2022-11-15T14:23:04;5.45;;;2.60;;
70733;SDS011;58320;48.804;9.252;2022-11-15T14:25:55;7.70;;;2.78;;
70733;SDS011;58320;48.804;9.252;2022-11-15T14:30:50;5.53;;;2.90;;
70733;SDS011;58320;48.804;9.252;2022-11-15T14:33:23;7.07;;;3.53;;
70733;SDS011;58320;48.804;9.252;2022-11-15T14:35:57;7.32;;;3.67;;
70733;SDS011;58320;48.804;9.252;2022-11-15T14:38:37;6.88;;;4.10;;
70733;SDS011;58320;48.804;9.252;2022-11-15T14:41:03;5.73;;;3.20;;
70733;SDS011;58320;48.804;9.252;2022-11-15T14:43:29;6.30;;;3.10;;
70733;SDS011;58320;48.804;9.252;2022-11-15T14:45:55;5.82;;;3.15;;
70733;SDS011;58320;48.804;9.252;2022-11-15T14:48:21;6.67;;;3.40;;
70733;SDS011;58320;48.804;9.252;2022-11-15T14:50:47;6.97;;;3.45;;
70733;SDS011;58320;48.804;9.252;2022-11-15T14:53:16;9.05;;;3.47;;
70733;SDS011;58320;48.804;9.252;2022-11-15T14:55:43;6.68;;;3.28;;
70733;SDS011;58320;48.804;9.252;2022-11-15T14:58:09;7.30;;;3.57;;
70733;SDS011;58320;48.804;9.252;2022-11-15T15:00:36;6.85;;;3.72;;
70733;SDS011;58320;48.804;9.252;2022-11-15T15:03:05;6.70;;;3.75;;
70733;SDS011;58320;48.804;9.252;2022-11-15T15:05:39;7.32;;;3.65;;
70733;SDS011;58320;48.804;9.252;2022-11-15T15:08:07;7.20;;;3.67;;
70733;SDS011;58320;48.804;9.252;2022-11-15T15:10:41;7.07;;;3.50;;
70733;SDS011;58320;48.804;9.252;2022-11-15T15:13:15;7.72;;;3.35;;
70733;SDS011;58320;48.804;9.252;2022-11-15T15:15:43;6.30;;;2.95;;
70733;SDS011;58320;48.804;9.252;2022-11-15T15:18:09;4.70;;;2.65;;
70733;SDS011;58320;48.804;9.252;2022-11-15T15:20:36;9.30;;;4.53;;
70733;SDS011;58320;48.804;9.252;2022-11-15T15:23:05;6.30;;;4.23;;
70733;SDS011;58320;48.804;9.252;2022-11-15T15:25:40;6.75;;;4.05;;
70733;SDS011;58320;48.804;9.252;2022-11-15T15:28:06;6.25;;;3.65;;
70733;SDS011;58320;48.804;9.252;2022-11-15T15:30:32;6.47;;;3.70;;
70733;SDS011;58320;48.804;9.252;2022-11-15T15:32:58;8.87;;;4.67;;
70733;SDS011;58320;48.804;9.252;2022-11-15T15:35:24;7.70;;;4.50;;
70733;SDS011;58320;48.804;9.252;2022-11-15T15:37:58;7.45;;;4.53;;
70733;SDS011;58320;48.804;9.252;2022-11-15T15:40:24;8.50;;;4.37;;
70733;SDS011;58320;48.804;9.252;2022-11-15T15:42:52;7.60;;;4.13;;
70733;SDS011;58320;48.804;9.252;2022-11-15T15:45:18;6.80;;;3.42;;
70733;SDS011;58320;48.804;9.252;2022-11-15T15:47:44;6.25;;;3.15;;
70733;SDS011;58320;48.804;9.252;2022-11-15T15:50:17;8.87;;;4.00;;
70733;SDS011;58320;48.804;9.252;2022-11-15T15:52:47;7.70;;;3.83;;
70733;SDS011;58320;48.804;9.252;2022-11-15T15:55:14;7.60;;;3.40;;
70733;SDS011;58320;48.804;9.252;2022-11-15T15:57:40;5.78;;;3.03;;
70733;SDS011;58320;48.804;9.252;2022-11-15T16:00:06;7.77;;;3.07;;
70733;SDS011;58320;48.804;9.252;2022-11-15T16:02:33;4.82;;;2.45;;
70733;SDS011;58320;48.804;9.252;2022-11-15T16:04:59;5.65;;;2.70;;
70733;SDS011;58320;48.804;9.252;2022-11-15T16:07:25;7.53;;;3.10;;
70733;SDS011;58320;48.804;9.252;2022-11-15T16:09:53;5.35;;;3.10;;
70733;SDS011;58320;48.804;9.252;2022-11-15T16:12:25;6.07;;;3.20;;
70733;SDS011;58320;48.804;9.252;2022-11-15T16:15:00;6.10;;;3.10;;
70733;SDS011;58320;48.804;9.252;2022-11-15T16:17:32;6.50;;;2.95;;
70733;SDS011;58320;48.804;9.252;2022-11-15T16:20:04;6.40;;;2.90;;
70733;SDS011;58320;48.804;9.252;2022-11-15T16:22:30;6.55;;;3.08;;
70733;SDS011;58320;48.804;9.252;2022-11-15T16:24:56;5.28;;;2.90;;
70733;SDS011;58320;48.804;9.252;2022-11-15T16:27:22;5.60;;;2.70;;
70733;SDS011;58320;48.804;9.252;2022-11-15T16:29:48;8.15;;;3.20;;
70733;SDS011;58320;48.804;9.252;2022-11-15T16:32:15;6.07;;;3.00;;
70733;SDS011;58320;48.804;9.252;2022-11-15T16:34:41;6.07;;;3.00;;
70733;SDS011;58320;48.804;9.252;2022-11-15T16:37:40;5.93;;;2.75;;
70733;SDS011;58320;48.804;9.252;2022-11-15T16:39:59;8.67;;;3.37;;
70733;SDS011;58320;48.804;9.252;2022-11-15T16:42:25;4.90;;;2.83;;
70733;SDS011;58320;48.804;9.252;2022-11-15T16:44:51;5.13;;;2.50;;
70733;SDS011;58320;48.804;9.252;2022-11-15T16:47:17;6.43;;;2.90;;
70733;SDS011;58320;48.804;9.252;2022-11-15T16:49:47;5.13;;;3.00;;
70733;SDS011;58320;48.804;9.252;2022-11-15T16:52:13;6.72;;;4.28;;
70733;SDS011;58320;48.804;9.252;2022-11-15T16:54:38;6.88;;;3.95;;
70733;SDS011;58320;48.804;9.252;2022-11-15T16:57:04;8.73;;;3.63;;
70733;SDS011;58320;48.804;9.252;2022-11-15T16:59:30;6.32;;;3.38;;
70733;SDS011;58320;48.804;9.252;2022-11-15T17:01:57;6.60;;;3.40;;
70733;SDS011;58320;48.804;9.252;2022-11-15T17:04:23;6.07;;;3.33;;
70733;SDS011;58320;48.804;9.252;2022-11-15T17:06:51;5.28;;;3.10;;
70733;SDS011;58320;48.804;9.252;2022-11-15T17:09:18;7.63;;;4.60;;
70733;SDS011;58320;48.804;9.252;2022-11-15T17:11:48;10.52;;;5.05;;
70733;SDS011;58320;48.804;9.252;2022-11-15T17:14:14;9.93;;;4.97;;
70733;SDS011;58320;48.804;9.252;2022-11-15T17:16:40;8.27;;;4.10;;
70733;SDS011;58320;48.804;9.252;2022-11-15T17:19:15;7.53;;;4.00;;
70733;SDS011;58320;48.804;9.252;2022-11-15T17:21:44;8.65;;;3.83;;
70733;SDS011;58320;48.804;9.252;2022-11-15T17:24:13;6.35;;;3.45;;
70733;SDS011;58320;48.804;9.252;2022-11-15T17:26:39;7.93;;;3.60;;
70733;SDS011;58320;48.804;9.252;2022-11-15T17:29:06;6.20;;;3.55;;
70733;SDS011;58320;48.804;9.252;2022-11-15T17:31:33;7.53;;;3.67;;
70733;SDS011;58320;48.804;9.252;2022-11-15T17:34:00;7.35;;;3.67;;
70733;SDS011;58320;48.804;9.252;2022-11-15T17:36:27;6.82;;;3.90;;
70733;SDS011;58320;48.804;9.252;2022-11-15T17:38:54;7.90;;;3.10;;
70733;SDS011;58320;48.804;9.252;2022-11-15T17:41:20;6.28;;;3.25;;
70733;SDS011;58320;48.804;9.252;2022-11-15T17:43:45;9.30;;;4.45;;
70733;SDS011;58320;48.804;9.252;2022-11-15T17:46:13;9.05;;;4.40;;
70733;SDS011;58320;48.804;9.252;2022-11-15T17:48:42;12.90;;;4.77;;